Terminal Aerodrome Forecast
Issued by NWS Twin Cities, MN

Home | Current Version | Previous Version | Graphics & Text | Print | Product List | Glossary On
Versions: 1 2 3 4 5 6 7 8 9 10 11 12
000
FTUS43 KMPX 141126
TAFSTC
TAF
KSTC 141126Z 1412/1512 16008KT P6SM BKN025 OVC035
     FM141400 16009KT 4SM -SHSN BKN025 OVC035
     FM141900 18009KT 3/4SM -SN BR VV006
     FM150100 33009KT 4SM -SN OVC015
     FM150800 32014G21KT 6SM -SN OVC015=

USA.gov is the U.S. government's official web portal to all federal, state and local government web resources and services.